createdAt,value
2022-09-05T00:00:29.683Z,27.18
2022-09-05T00:01:30.031Z,27.21
2022-09-05T00:02:29.882Z,27.24
2022-09-05T00:03:30.325Z,27.24
2022-09-05T00:04:29.938Z,27.20
2022-09-05T00:05:29.841Z,27.18
2022-09-05T00:06:30.184Z,27.25
2022-09-05T00:07:37.505Z,27.16
2022-09-05T00:08:29.941Z,27.23
2022-09-05T00:09:30.503Z,27.16
2022-09-05T00:10:36.156Z,27.15
2022-09-05T00:11:43.295Z,27.18
2022-09-05T00:12:30.069Z,27.13
2022-09-05T00:13:30.348Z,27.15
2022-09-05T00:15:14.335Z,27.15
2022-09-05T00:15:30.157Z,27.23
2022-09-05T00:21:27.102Z,27.13
2022-09-05T00:24:17.472Z,27.12
2022-09-05T00:24:19.772Z,27.13
2022-09-05T00:24:26.947Z,27.16
2022-09-05T00:24:27.645Z,27.21
2022-09-05T00:24:27.645Z,27.16
2022-09-05T00:24:50.104Z,27.18
2022-09-05T00:25:32.082Z,27.15
2022-09-05T00:27:30.542Z,27.18
2022-09-05T00:28:30.877Z,27.13
2022-09-05T00:31:05.530Z,27.11
2022-09-05T00:31:51.735Z,27.18
2022-09-05T00:31:54.778Z,27.18
2022-09-05T00:33:31.071Z,27.18
2022-09-05T00:34:47.219Z,27.11
2022-09-05T00:35:30.798Z,27.13
2022-09-05T00:36:30.930Z,27.11
2022-09-05T00:37:30.862Z,27.09
2022-09-05T00:39:30.981Z,27.08
2022-09-05T00:40:31.008Z,27.18
2022-09-05T00:41:34.424Z,27.09
2022-09-05T00:42:31.021Z,27.06
2022-09-05T00:43:31.057Z,27.20
2022-09-05T00:44:31.086Z,27.12
2022-09-05T00:45:31.120Z,27.13
2022-09-05T00:46:32.199Z,27.06
2022-09-05T00:47:31.179Z,27.11
2022-09-05T00:48:31.520Z,27.15
2022-09-05T00:49:32.000Z,27.13
2022-09-05T00:52:31.439Z,27.02
2022-09-05T00:53:31.371Z,27.05
2022-09-05T00:54:40.478Z,27.08
2022-09-05T00:55:31.441Z,27.11
2022-09-05T00:57:31.523Z,27.09
2022-09-05T00:58:34.057Z,27.09
2022-09-05T00:59:31.561Z,27.09
2022-09-05T01:00:31.608Z,27.11
2022-09-05T01:01:32.075Z,27.08
2022-09-05T01:02:33.343Z,27.13
2022-09-05T01:03:31.692Z,26.98
2022-09-05T01:04:31.720Z,27.03
2022-09-05T01:05:31.759Z,27.12
2022-09-05T01:06:31.785Z,27.01
2022-09-05T01:07:32.315Z,27.06
2022-09-05T01:08:31.848Z,27.01
2022-09-05T01:09:31.892Z,27.05
2022-09-05T01:10:31.913Z,27.01
2022-09-05T01:11:31.945Z,27.02
2022-09-05T01:12:31.975Z,27.02
2022-09-05T01:13:32.406Z,27.08
2022-09-05T01:14:32.044Z,27.02
2022-09-05T01:15:32.797Z,27.02
2022-09-05T01:16:32.129Z,26.98
2022-09-05T01:17:32.883Z,27.01
2022-09-05T01:18:32.166Z,26.94
2022-09-05T01:19:32.195Z,27.02
2022-09-05T01:20:34.433Z,26.97
2022-09-05T01:21:32.260Z,26.97
2022-09-05T01:22:32.299Z,26.94
2022-09-05T01:23:32.326Z,26.97
2022-09-05T01:24:32.355Z,26.97
2022-09-05T01:26:32.422Z,26.96
2022-09-05T01:29:16.373Z,26.96
2022-09-05T01:29:32.522Z,27.01
2022-09-05T01:31:32.698Z,27.06
2022-09-05T01:32:32.608Z,26.93
2022-09-05T01:33:32.645Z,27.08
2022-09-05T01:34:32.929Z,27.01
2022-09-05T01:35:32.711Z,26.96
2022-09-05T01:36:32.731Z,26.98
2022-09-05T01:37:34.208Z,26.94
2022-09-05T01:38:32.796Z,27.01
2022-09-05T01:40:12.243Z,27.02
2022-09-05T01:40:33.247Z,26.98
2022-09-05T01:41:32.949Z,27.01
2022-09-05T01:42:32.925Z,26.97
2022-09-05T01:43:32.958Z,27.05
2022-09-05T01:44:32.987Z,27.01
2022-09-05T01:45:39.348Z,26.97
2022-09-05T01:46:33.182Z,26.91
2022-09-05T01:47:33.395Z,27.05
2022-09-05T01:48:33.127Z,27.01
2022-09-05T01:49:33.151Z,27.01
2022-09-05T01:50:33.179Z,27.01
2022-09-05T01:53:33.273Z,27.01
2022-09-05T01:54:33.607Z,27.03
2022-09-05T01:55:33.342Z,26.93
2022-09-05T01:56:33.366Z,26.94
2022-09-05T01:57:33.399Z,27.01
2022-09-05T01:58:33.437Z,26.96
2022-09-05T02:00:33.496Z,26.90
2022-09-05T02:01:33.963Z,26.98
2022-09-05T02:02:33.692Z,27.02
2022-09-05T02:03:33.590Z,26.98
2022-09-05T02:04:33.627Z,26.97
2022-09-05T02:06:33.688Z,26.96
2022-09-05T02:07:34.473Z,26.98
2022-09-05T02:09:34.079Z,26.88
2022-09-05T02:10:33.816Z,26.88
2022-09-05T02:11:35.794Z,26.94
2022-09-05T02:12:33.878Z,26.94
2022-09-05T02:13:33.909Z,26.94
2022-09-05T02:14:34.687Z,26.93
2022-09-05T02:15:34.032Z,26.86
2022-09-05T02:16:34.402Z,26.88
2022-09-05T02:18:34.074Z,26.90
2022-09-05T02:19:34.098Z,26.90
2022-09-05T02:20:34.128Z,26.83
2022-09-05T02:21:55.674Z,26.90
2022-09-05T02:24:34.271Z,26.93
2022-09-05T02:26:02.611Z,26.88
2022-09-05T02:26:34.319Z,26.94
2022-09-05T02:28:03.886Z,26.90
2022-09-05T02:28:34.414Z,26.88
2022-09-05T02:29:34.417Z,26.93
2022-09-05T02:30:34.507Z,26.90
2022-09-05T02:31:34.485Z,26.84
2022-09-05T02:32:34.804Z,26.81
2022-09-05T02:33:34.548Z,26.86
2022-09-05T02:34:34.870Z,26.86
2022-09-05T02:36:34.634Z,26.84
2022-09-05T02:38:45.500Z,26.90
2022-09-05T02:40:44.200Z,26.90
2022-09-05T02:45:02.722Z,26.86
2022-09-05T02:45:07.734Z,26.83
2022-09-05T02:45:10.981Z,26.90
2022-09-05T02:45:14.816Z,26.90
2022-09-05T02:45:15.038Z,26.87
2022-09-05T02:45:20.599Z,26.86
2022-09-05T02:45:35.549Z,26.83
2022-09-05T02:46:35.090Z,26.84
2022-09-05T02:47:34.995Z,26.93
2022-09-05T02:48:35.021Z,26.87
2022-09-05T02:51:04.150Z,26.84
2022-09-05T02:57:15.714Z,26.91
2022-09-05T02:57:23.086Z,26.90
2022-09-05T02:57:28.443Z,26.84
2022-09-05T02:57:34.567Z,26.81
2022-09-05T02:57:42.128Z,26.81
2022-09-05T02:58:05.650Z,26.90
2022-09-05T02:58:59.328Z,26.83
2022-09-05T02:59:36.563Z,26.81
2022-09-05T03:00:35.390Z,26.83
2022-09-05T03:01:35.531Z,26.84
2022-09-05T03:02:35.628Z,26.83
2022-09-05T03:03:35.648Z,26.83
2022-09-05T03:04:35.816Z,26.83
2022-09-05T03:05:38.580Z,26.87
2022-09-05T03:06:35.600Z,26.79
2022-09-05T03:07:35.612Z,26.81
2022-09-05T03:08:35.653Z,26.87
2022-09-05T03:09:35.677Z,26.78
2022-09-05T03:11:36.039Z,26.83
2022-09-05T03:12:35.872Z,26.87
2022-09-05T03:13:35.808Z,26.75
2022-09-05T03:14:35.854Z,26.79
2022-09-05T03:15:35.875Z,26.84
2022-09-05T03:16:44.847Z,26.84
2022-09-05T03:18:36.506Z,26.75
2022-09-05T03:19:36.003Z,26.78
2022-09-05T03:20:36.041Z,26.84
2022-09-05T03:21:36.071Z,26.81
2022-09-05T03:22:37.173Z,26.75
2022-09-05T03:23:36.439Z,26.76
2022-09-05T03:24:36.173Z,26.83
2022-09-05T03:25:36.210Z,26.79
2022-09-05T03:26:36.243Z,26.86
2022-09-05T03:27:36.281Z,26.76
2022-09-05T03:28:36.309Z,26.83
2022-09-05T03:29:36.344Z,26.78
2022-09-05T03:30:36.741Z,26.84
2022-09-05T03:31:36.411Z,26.83
2022-09-05T03:32:41.986Z,26.78
2022-09-05T03:33:36.479Z,26.72
2022-09-05T03:34:36.508Z,26.79
2022-09-05T03:36:36.575Z,26.84
2022-09-05T03:37:36.909Z,26.75
2022-09-05T03:39:36.736Z,26.78
2022-09-05T03:40:36.735Z,26.81
2022-09-05T03:41:40.593Z,26.83
2022-09-05T03:42:36.777Z,26.86
2022-09-05T03:43:36.810Z,26.87
2022-09-05T03:44:37.151Z,26.83
2022-09-05T03:45:37.742Z,26.79
2022-09-05T03:48:37.108Z,26.73
2022-09-05T03:57:06.536Z,26.78
2022-09-05T03:57:08.083Z,26.84
2022-09-05T03:57:11.959Z,26.86
2022-09-05T03:57:11.962Z,26.84
2022-09-05T03:57:15.048Z,26.81
2022-09-05T03:57:23.884Z,26.81
2022-09-05T03:57:28.307Z,26.84
2022-09-05T03:57:42.262Z,26.79
2022-09-05T03:58:56.021Z,26.81
2022-09-05T03:59:37.912Z,26.87
2022-09-05T04:00:37.388Z,26.79
2022-09-05T04:04:22.684Z,26.79
2022-09-05T04:07:04.991Z,26.76
2022-09-05T04:08:10.952Z,26.78
2022-09-05T04:08:16.872Z,26.79
2022-09-05T04:08:17.043Z,26.83
2022-09-05T04:08:19.031Z,26.87
2022-09-05T04:08:26.186Z,26.72
2022-09-05T04:08:42.754Z,26.81
2022-09-05T04:09:50.475Z,26.79
2022-09-05T04:10:37.829Z,26.83
2022-09-05T04:11:37.765Z,26.76
2022-09-05T04:12:38.399Z,26.79
2022-09-05T04:13:37.829Z,26.73
2022-09-05T04:14:38.636Z,26.84
2022-09-05T04:15:37.903Z,26.76
2022-09-05T04:17:38.080Z,26.81
2022-09-05T04:18:38.002Z,26.83
2022-09-05T04:19:38.288Z,26.79
2022-09-05T04:20:40.454Z,26.83
2022-09-05T04:21:38.112Z,26.88
2022-09-05T04:22:38.152Z,26.78
2022-09-05T04:23:38.183Z,26.79
2022-09-05T04:24:39.637Z,26.83
2022-09-05T04:26:38.277Z,26.84
2022-09-05T04:27:38.612Z,26.79
2022-09-05T04:28:38.349Z,26.88
2022-09-05T04:29:38.420Z,26.76
2022-09-05T04:30:40.418Z,26.78
2022-09-05T04:31:38.499Z,26.83
2022-09-05T04:32:38.488Z,26.87
2022-09-05T04:33:38.523Z,26.78
2022-09-05T04:34:38.798Z,26.87
2022-09-05T04:35:38.582Z,26.78
2022-09-05T04:36:38.618Z,26.78
2022-09-05T04:38:38.687Z,26.78
2022-09-05T04:39:38.767Z,26.84
2022-09-05T04:40:38.759Z,26.84
2022-09-05T04:41:40.179Z,26.83
2022-09-05T04:42:38.821Z,26.87
2022-09-05T04:43:38.859Z,26.78
2022-09-05T04:44:38.886Z,26.81
2022-09-05T04:45:38.962Z,26.81
2022-09-05T04:46:48.946Z,26.84
2022-09-05T04:47:39.008Z,26.75
2022-09-05T04:48:39.283Z,26.84
2022-09-05T04:49:39.361Z,26.78
2022-09-05T04:50:39.093Z,26.81
2022-09-05T04:51:39.136Z,26.79
2022-09-05T04:52:39.161Z,26.79
2022-09-05T04:53:39.198Z,26.73
2022-09-05T04:55:39.270Z,26.84
2022-09-05T04:56:39.600Z,26.79
2022-09-05T04:57:39.330Z,26.87
2022-09-05T05:06:00.409Z,26.81
2022-09-05T05:06:06.083Z,26.79
2022-09-05T05:06:12.049Z,26.88
2022-09-05T05:06:16.274Z,26.79
2022-09-05T05:06:16.466Z,26.83
2022-09-05T05:06:45.919Z,26.76
2022-09-05T05:07:39.760Z,26.84
2022-09-05T05:08:39.900Z,26.81
2022-09-05T05:09:39.742Z,26.76
2022-09-05T05:11:11.545Z,26.87
2022-09-05T05:17:25.373Z,26.83
2022-09-05T05:17:53.638Z,26.86
2022-09-05T05:17:56.453Z,26.78
2022-09-05T05:18:06.723Z,26.86
2022-09-05T05:18:08.138Z,26.84
2022-09-05T05:18:15.635Z,26.79
2022-09-05T05:18:16.112Z,26.84
2022-09-05T05:18:55.036Z,26.86
2022-09-05T05:19:40.164Z,26.84
2022-09-05T05:20:43.742Z,26.76
2022-09-05T05:21:40.164Z,26.86
2022-09-05T05:22:40.185Z,26.86
2022-09-05T05:23:40.220Z,26.90
2022-09-05T05:24:40.502Z,26.84
2022-09-05T05:25:40.293Z,26.84
2022-09-05T05:26:40.333Z,26.81
2022-09-05T05:27:40.361Z,26.79
2022-09-05T05:28:40.395Z,26.78
2022-09-05T05:29:40.430Z,26.87
2022-09-05T05:30:40.762Z,26.84
2022-09-05T05:31:40.620Z,26.84
2022-09-05T05:32:45.516Z,26.87
2022-09-05T05:34:40.598Z,26.87
2022-09-05T05:35:48.031Z,26.81
2022-09-05T05:36:40.678Z,26.79
2022-09-05T05:37:40.701Z,26.83
2022-09-05T05:38:40.734Z,26.84
2022-09-05T05:39:40.870Z,26.81
2022-09-05T05:40:50.525Z,26.87
2022-09-05T05:41:40.842Z,26.90
2022-09-05T05:42:40.870Z,26.81
2022-09-05T05:43:46.102Z,26.86
2022-09-05T05:44:41.807Z,26.81
2022-09-05T05:45:41.039Z,26.87
2022-09-05T05:46:41.009Z,26.86
2022-09-05T05:47:41.044Z,26.83
2022-09-05T05:48:42.248Z,26.79
2022-09-05T05:49:41.109Z,26.83
2022-09-05T05:52:02.370Z,26.88
2022-09-05T05:53:43.443Z,26.88
2022-09-05T05:54:41.282Z,26.90
2022-09-05T05:55:52.014Z,26.90
2022-09-05T05:56:41.457Z,26.87
2022-09-05T05:57:41.397Z,26.87
2022-09-05T05:58:41.524Z,26.90
2022-09-05T05:59:41.457Z,26.88
2022-09-05T06:00:41.485Z,26.84
2022-09-05T06:01:41.628Z,26.86
2022-09-05T06:03:42.036Z,26.83
2022-09-05T06:05:41.659Z,26.81
2022-09-05T06:06:41.694Z,26.90
2022-09-05T06:08:33.884Z,26.83
2022-09-05T06:13:40.353Z,26.91
2022-09-05T06:14:48.955Z,26.93
2022-09-05T06:14:55.184Z,26.88
2022-09-05T06:15:01.625Z,26.90
2022-09-05T06:15:01.626Z,26.93
2022-09-05T06:15:04.153Z,26.87
2022-09-05T06:15:09.311Z,26.88
2022-09-05T06:15:42.001Z,26.98
2022-09-05T06:16:42.069Z,26.91
2022-09-05T06:17:42.063Z,26.90
2022-09-05T06:18:42.517Z,26.90
2022-09-05T06:22:07.007Z,26.94
2022-09-05T06:22:08.553Z,26.96
2022-09-05T06:22:11.590Z,26.88
2022-09-05T06:22:42.670Z,26.94
2022-09-05T06:24:42.305Z,26.91
2022-09-05T06:25:42.344Z,26.94
2022-09-05T06:26:42.644Z,26.86
2022-09-05T06:28:42.540Z,26.90
2022-09-05T06:29:46.933Z,26.90
2022-09-05T06:30:42.616Z,26.91
2022-09-05T06:31:42.581Z,26.93
2022-09-05T06:32:46.797Z,26.97
2022-09-05T06:33:42.613Z,26.87
2022-09-05T06:34:42.650Z,26.93
2022-09-05T06:35:42.982Z,26.93
2022-09-05T06:36:42.720Z,26.93
2022-09-05T06:37:42.747Z,26.91
2022-09-05T06:38:42.784Z,26.97
2022-09-05T06:39:45.145Z,26.98
2022-09-05T06:40:42.852Z,26.93
2022-09-05T06:41:43.188Z,27.01
2022-09-05T06:42:44.137Z,26.96
2022-09-05T06:43:42.954Z,26.94
2022-09-05T06:44:42.991Z,26.97
2022-09-05T06:45:43.073Z,26.96
2022-09-05T06:47:21.999Z,27.01
2022-09-05T06:47:43.160Z,26.97
2022-09-05T06:49:46.024Z,26.98
2022-09-05T06:51:08.106Z,26.98
2022-09-05T06:51:44.190Z,26.98
2022-09-05T06:52:44.050Z,27.06
2022-09-05T06:53:43.605Z,27.03
2022-09-05T06:54:54.536Z,26.98
2022-09-05T06:55:43.371Z,27.03
2022-09-05T06:56:43.405Z,27.01
2022-09-05T06:57:44.025Z,26.98
2022-09-05T06:58:43.475Z,26.94
2022-09-05T06:59:43.517Z,26.93
2022-09-05T07:00:43.813Z,27.03
2022-09-05T07:01:59.560Z,26.97
2022-09-05T07:02:59.823Z,26.98
2022-09-05T07:03:43.647Z,26.96
2022-09-05T07:05:37.797Z,27.02
2022-09-05T07:05:45.268Z,26.98
2022-09-05T07:07:00.996Z,27.01
2022-09-05T07:07:45.991Z,26.94
2022-09-05T07:08:43.812Z,26.98
2022-09-05T07:09:43.849Z,26.96
2022-09-05T07:10:43.884Z,27.08
2022-09-05T07:11:43.926Z,26.94
2022-09-05T07:12:43.958Z,27.01
2022-09-05T07:13:44.837Z,27.02
2022-09-05T07:14:44.118Z,27.05
2022-09-05T07:15:44.054Z,27.09
2022-09-05T07:16:44.249Z,27.06
2022-09-05T07:18:06.606Z,27.05
2022-09-05T07:18:44.160Z,27.09
2022-09-05T07:19:44.445Z,27.11
2022-09-05T07:21:15.792Z,27.03
2022-09-05T07:21:44.424Z,27.03
2022-09-05T07:22:48.590Z,27.02
2022-09-05T07:24:06.564Z,27.11
2022-09-05T07:24:54.701Z,27.02
2022-09-05T07:25:44.402Z,27.08
2022-09-05T07:26:53.957Z,27.12
2022-09-05T07:28:22.246Z,27.03
2022-09-05T07:28:44.498Z,27.01
2022-09-05T07:29:53.526Z,27.21
2022-09-05T07:30:44.569Z,27.11
2022-09-05T07:31:44.667Z,27.02
2022-09-05T07:32:44.638Z,27.08
2022-09-05T07:33:44.675Z,27.08
2022-09-05T07:34:44.706Z,27.09
2022-09-05T07:35:44.743Z,27.20
2022-09-05T07:36:44.775Z,27.18
2022-09-05T07:37:44.815Z,27.12
2022-09-05T07:38:54.914Z,27.12
2022-09-05T07:40:44.916Z,27.16
2022-09-05T07:41:44.949Z,27.16
2022-09-05T07:42:45.018Z,27.16
2022-09-05T07:43:45.321Z,27.18
2022-09-05T07:44:45.067Z,27.20
2022-09-05T07:45:52.169Z,27.20
2022-09-05T07:46:45.125Z,27.23
2022-09-05T07:47:45.166Z,27.18
2022-09-05T07:48:45.199Z,27.15
2022-09-05T07:51:03.435Z,27.18
2022-09-05T07:56:19.200Z,27.20
2022-09-05T07:56:32.091Z,27.20
2022-09-05T07:57:01.850Z,27.23
2022-09-05T07:57:02.366Z,27.21
2022-09-05T07:57:03.719Z,27.21
2022-09-05T07:57:04.126Z,27.18
2022-09-05T07:57:08.067Z,27.21
2022-09-05T07:57:52.089Z,27.20
2022-09-05T07:58:45.564Z,27.27
2022-09-05T08:00:45.679Z,27.28
2022-09-05T08:01:45.648Z,27.27
2022-09-05T08:02:47.620Z,27.33
2022-09-05T08:03:46.020Z,27.30
2022-09-05T08:04:45.789Z,27.31
2022-09-05T08:05:45.781Z,27.34
2022-09-05T22:37:09.161Z,27.95
2022-09-05T22:38:11.869Z,27.86
2022-09-05T22:39:09.244Z,27.90
2022-09-05T22:40:09.300Z,27.91
2022-09-05T22:41:09.395Z,27.87
2022-09-05T22:42:10.714Z,27.88
2022-09-05T22:43:09.660Z,27.96
2022-09-05T22:44:09.395Z,27.95
2022-09-05T22:45:09.426Z,27.87
2022-09-05T22:47:09.493Z,27.96
2022-09-05T22:49:09.665Z,27.88
2022-09-05T22:50:09.843Z,27.84
2022-09-05T22:51:09.628Z,27.93
2022-09-05T22:52:09.968Z,27.87
2022-09-05T22:53:09.713Z,27.90
2022-09-05T22:54:09.731Z,27.87
2022-09-05T22:55:09.763Z,27.86
2022-09-05T22:56:09.805Z,27.99
2022-09-05T22:57:10.082Z,27.86
2022-09-05T22:58:09.866Z,27.86
2022-09-05T22:59:09.911Z,27.93
2022-09-05T23:00:09.939Z,27.93
2022-09-05T23:01:10.062Z,27.88
2022-09-05T23:02:10.008Z,27.87
2022-09-05T23:03:10.045Z,27.91
2022-09-05T23:04:10.468Z,27.93
2022-09-05T23:05:10.113Z,27.91
2022-09-05T23:06:10.152Z,27.93
2022-09-05T23:07:10.188Z,27.88
2022-09-05T23:08:10.220Z,27.84
2022-09-05T23:09:10.249Z,27.87
2022-09-05T23:10:10.582Z,27.95
2022-09-05T23:11:10.325Z,27.91
2022-09-05T23:12:10.357Z,27.87
2022-09-05T23:13:10.388Z,27.91
2022-09-05T23:14:10.420Z,27.84
2022-09-05T23:15:10.483Z,27.90
2022-09-05T23:16:10.884Z,27.95
2022-09-05T23:17:10.527Z,27.88
2022-09-05T23:18:10.572Z,27.90
2022-09-05T23:19:10.599Z,27.90
2022-09-05T23:20:10.863Z,27.90
2022-09-05T23:21:10.775Z,27.93
2022-09-05T23:24:11.074Z,27.90
2022-09-05T23:25:10.907Z,27.83
2022-09-05T23:26:10.841Z,27.90
2022-09-05T23:27:10.891Z,27.87
2022-09-05T23:28:10.917Z,27.87
2022-09-05T23:29:11.247Z,27.91
2022-09-05T23:30:10.984Z,27.95
2022-09-05T23:31:11.337Z,27.91
2022-09-05T23:32:11.056Z,27.86
2022-09-05T23:33:11.092Z,27.93
2022-09-05T23:34:11.220Z,27.91
2022-09-05T23:36:11.296Z,27.87
2022-09-05T23:37:11.532Z,27.91
2022-09-05T23:38:11.263Z,27.88
2022-09-05T23:39:11.298Z,27.93
2022-09-05T23:40:11.437Z,27.84
2022-09-05T23:41:11.373Z,27.83
2022-09-05T23:42:11.511Z,27.88
2022-09-05T23:43:11.440Z,27.90
2022-09-05T23:44:11.777Z,27.84
2022-09-05T23:45:11.511Z,27.95
2022-09-05T23:46:11.632Z,27.90
2022-09-05T23:47:11.597Z,27.90
2022-09-05T23:49:11.648Z,27.87
2022-09-05T23:50:11.690Z,27.88
2022-09-05T23:51:12.031Z,27.84
2022-09-05T23:52:11.750Z,27.91
2022-09-05T23:53:11.790Z,27.90
2022-09-05T23:54:11.833Z,27.87
2022-09-05T23:55:11.866Z,27.87
2022-09-05T23:56:11.898Z,27.88
2022-09-05T23:57:11.931Z,27.88
2022-09-05T23:58:12.217Z,27.96
2022-09-05T23:59:12.003Z,27.95
